Terminal Aerodrome Forecast
Issued by NWS Sterling, VA

Current Version | Previous Version | Text Only | Print | Product List | Glossary Off
Versions: 1 2 3 4 5 6 7 8 9 10 11 12 13 14 15 16 17

000
FTUS41 KLWX 261134
TAFMRB
TAF
KMRB 261134Z 2612/2712 00000KT 5SM BR SKC
     FM261300 VRB03KT P6SM SKC
     FM261900 20005KT P6SM VCTS SCT050CB BKN150
     FM270000 22004KT P6SM SCT050 BKN060
     FM270800 00000KT P6SM SCT050 BKN110=

USA.gov is the U.S. government's official web portal to all federal, state and local government web resources and services.